createdAt,value
2022-11-03T02:20:34.992Z,2.51
2022-11-03T02:23:31.573Z,2.50
2022-11-03T02:25:59.271Z,2.52
2022-11-03T02:28:31.076Z,2.48
2022-11-03T02:31:17.376Z,2.49
2022-11-03T02:33:54.869Z,2.48
2022-11-03T02:36:32.861Z,2.43
2022-11-03T02:39:11.882Z,2.45
2022-11-03T02:41:39.890Z,2.40
2022-11-03T02:44:14.895Z,2.39
2022-11-03T02:46:43.926Z,2.39
2022-11-03T02:49:11.730Z,2.41
2022-11-03T02:51:39.859Z,2.42
2022-11-03T02:54:23.723Z,2.41
2022-11-03T02:57:01.147Z,2.43
2022-11-03T02:59:31.247Z,2.38
2022-11-03T03:02:09.369Z,2.33
2022-11-03T03:04:43.849Z,2.35
2022-11-03T03:07:15.231Z,2.35
2022-11-03T03:10:10.847Z,2.34
2022-11-03T03:12:40.277Z,2.33
2022-11-03T03:15:08.795Z,2.27
2022-11-03T03:18:06.611Z,2.23
2022-11-03T03:20:42.145Z,2.19
2022-11-03T03:23:14.941Z,2.12
2022-11-03T03:25:50.175Z,2.19
2022-11-03T03:28:31.297Z,2.24
2022-11-03T03:30:59.072Z,2.28
2022-11-03T03:35:54.914Z,2.37
2022-11-03T03:38:25.476Z,2.48
2022-11-03T03:40:55.452Z,2.58
2022-11-03T03:43:23.676Z,2.58
2022-11-03T03:45:52.710Z,2.63
2022-11-03T03:48:20.583Z,2.63
2022-11-03T03:50:49.975Z,2.65
2022-11-03T03:53:18.928Z,2.61
2022-11-03T03:55:49.740Z,2.61
2022-11-03T03:58:17.704Z,2.61
2022-11-03T04:00:45.635Z,2.58
2022-11-03T04:03:16.703Z,2.60
2022-11-03T04:05:45.021Z,2.61
2022-11-03T04:08:14.585Z,2.66
2022-11-03T04:11:02.433Z,2.70
2022-11-03T04:13:48.850Z,2.69
2022-11-03T04:16:36.990Z,2.67
2022-11-03T04:19:25.079Z,2.72
2022-11-03T04:22:11.207Z,2.73
2022-11-03T04:24:39.461Z,2.83
2022-11-03T04:27:37.101Z,2.93
2022-11-03T04:30:16.618Z,2.95
2022-11-03T04:32:45.477Z,3.00
2022-11-03T04:35:24.528Z,3.02
2022-11-03T04:38:02.480Z,3.07
2022-11-03T04:40:30.509Z,3.07
2022-11-03T04:42:58.719Z,3.04
2022-11-03T04:45:31.727Z,3.13
2022-11-03T04:48:00.630Z,3.25
2022-11-03T04:50:28.818Z,3.34
2022-11-03T04:52:58.774Z,3.41
2022-11-03T04:55:27.040Z,3.44
2022-11-03T04:58:00.950Z,3.43
2022-11-03T05:00:29.068Z,3.37
2022-11-03T05:02:57.746Z,3.41
2022-11-03T05:05:26.743Z,3.47
2022-11-03T05:07:56.202Z,3.50
2022-11-03T05:10:28.648Z,3.66
2022-11-03T05:12:58.109Z,3.69
2022-11-03T05:15:35.883Z,3.67
2022-11-03T05:18:28.903Z,3.64
2022-11-03T05:21:00.472Z,3.80
2022-11-03T05:23:28.092Z,3.82
2022-11-03T05:25:57.841Z,3.81
2022-11-03T05:28:28.853Z,3.91
2022-11-03T05:30:56.787Z,3.91
2022-11-03T05:33:29.484Z,3.89
2022-11-03T05:35:59.870Z,4.02
2022-11-03T05:38:30.882Z,4.07
2022-11-03T05:40:59.290Z,4.12
2022-11-03T05:43:27.407Z,4.19
2022-11-03T05:45:57.422Z,3.99
2022-11-03T05:48:35.560Z,4.08
2022-11-03T05:51:21.582Z,4.13
2022-11-03T05:53:57.633Z,4.23
2022-11-03T05:56:25.596Z,4.18
2022-11-03T05:58:57.440Z,4.24
2022-11-03T06:01:33.413Z,4.37
2022-11-03T06:04:23.257Z,4.47
2022-11-03T06:06:56.483Z,4.60
2022-11-03T06:09:24.860Z,4.66
2022-11-03T06:11:58.073Z,4.81
2022-11-03T06:14:27.807Z,4.83
2022-11-03T06:17:02.034Z,4.77
2022-11-03T06:19:34.685Z,4.79
2022-11-03T06:22:08.732Z,4.88
2022-11-03T06:24:36.708Z,4.97
2022-11-03T06:27:08.580Z,4.81
2022-11-03T06:29:37.186Z,4.88
2022-11-03T06:32:05.991Z,4.90
2022-11-03T06:34:47.738Z,4.81
2022-11-03T06:37:33.894Z,4.85
2022-11-03T06:40:22.518Z,4.95
2022-11-03T06:42:50.311Z,4.93
2022-11-03T06:45:23.025Z,5.01
2022-11-03T06:47:51.403Z,5.05
2022-11-03T06:50:44.622Z,5.08
2022-11-03T06:53:12.621Z,5.10
2022-11-03T06:55:41.009Z,5.18
2022-11-03T06:58:23.970Z,5.36
2022-11-03T07:00:52.220Z,5.51
2022-11-03T07:03:29.170Z,5.77
2022-11-03T07:06:11.200Z,5.97
2022-11-03T07:08:42.617Z,6.10
2022-11-03T07:11:19.209Z,6.17
2022-11-03T07:13:50.861Z,6.35
2022-11-03T07:16:38.621Z,6.50
2022-11-03T07:19:31.156Z,6.54
2022-11-03T07:22:00.055Z,6.61
2022-11-03T07:24:29.836Z,6.56
2022-11-03T07:27:42.358Z,6.66
2022-11-03T07:30:21.670Z,6.56
2022-11-03T07:32:52.455Z,6.64
2022-11-03T07:38:21.454Z,6.97
2022-11-03T07:40:49.795Z,7.17
2022-11-03T07:43:29.713Z,7.20
2022-11-03T07:45:59.271Z,7.55
2022-11-03T07:48:45.727Z,7.67
2022-11-03T07:51:23.839Z,7.64
2022-11-03T07:54:10.843Z,7.88
2022-11-03T07:56:40.274Z,7.84
2022-11-03T07:59:13.763Z,7.84
2022-11-03T08:01:54.101Z,7.79
2022-11-03T08:04:26.531Z,8.01
2022-11-03T08:06:54.508Z,8.13
2022-11-03T08:09:22.254Z,8.09
2022-11-03T08:11:50.982Z,8.25
2022-11-03T08:14:18.834Z,8.36
2022-11-03T08:16:49.433Z,8.39
2022-11-03T08:19:17.349Z,8.53
2022-11-03T08:21:45.627Z,8.26
2022-11-03T08:24:13.619Z,8.39
2022-11-03T08:26:41.351Z,8.20
2022-11-03T08:29:10.177Z,8.48
2022-11-03T08:31:39.537Z,8.45
2022-11-03T08:34:07.519Z,8.41
2022-11-03T08:36:36.802Z,8.30
2022-11-03T08:39:04.963Z,8.37
2022-11-03T10:44:19.932Z,10.20
2022-11-03T10:47:06.100Z,10.16
2022-11-03T10:52:40.094Z,10.46
2022-11-03T10:55:08.945Z,10.77
2022-11-03T10:57:37.662Z,10.88
2022-11-03T11:00:06.247Z,10.77
2022-11-03T11:02:36.686Z,10.81
2022-11-03T11:05:13.282Z,11.38
2022-11-03T11:07:43.814Z,11.26
2022-11-03T11:10:16.174Z,11.52
2022-11-03T11:13:03.498Z,11.93
2022-11-03T11:15:51.184Z,12.05
2022-11-03T11:18:29.520Z,11.97
2022-11-03T11:21:10.809Z,11.86
2022-11-03T11:23:39.323Z,11.94
2022-11-03T11:26:11.493Z,11.85
2022-11-03T11:28:47.216Z,11.81
2022-11-03T11:31:28.313Z,11.74
2022-11-03T11:34:17.499Z,11.92
2022-11-03T11:36:57.315Z,12.04
2022-11-03T11:39:28.106Z,11.77
2022-11-03T11:42:12.348Z,11.78
2022-11-03T11:44:51.848Z,11.87
2022-11-03T11:50:25.381Z,11.69
2022-11-03T11:53:11.470Z,11.82
2022-11-03T11:58:51.563Z,11.72
2022-11-03T12:01:23.530Z,11.86
2022-11-03T12:03:51.838Z,11.93
2022-11-03T12:06:35.188Z,11.84
2022-11-03T12:09:22.944Z,11.90
2022-11-03T12:11:56.203Z,11.87
2022-11-03T12:14:34.451Z,12.01
2022-11-03T12:17:22.476Z,11.87
2022-11-03T12:19:51.094Z,11.89
2022-11-03T12:22:24.854Z,11.91
2022-11-03T12:24:56.604Z,12.06
2022-11-03T12:27:24.156Z,12.17
2022-11-03T12:29:58.028Z,12.32
2022-11-03T12:32:34.160Z,12.37
2022-11-03T12:35:08.514Z,12.27
2022-11-03T12:37:36.788Z,12.10
2022-11-03T12:40:05.637Z,12.11
2022-11-03T12:42:33.336Z,11.95
2022-11-03T12:45:01.265Z,11.87
2022-11-03T12:47:29.063Z,11.88
2022-11-03T12:49:56.851Z,11.73
2022-11-03T12:52:24.912Z,11.73
2022-11-03T12:54:52.692Z,11.63
2022-11-03T12:57:20.861Z,11.66
2022-11-03T12:59:51.500Z,11.69
2022-11-03T13:02:19.446Z,11.68
2022-11-03T13:04:47.431Z,11.68
2022-11-03T13:07:16.473Z,11.60
2022-11-03T13:09:46.834Z,11.47
2022-11-03T13:12:32.543Z,11.26
2022-11-03T13:15:02.197Z,11.25
2022-11-03T13:17:35.944Z,11.29
2022-11-03T13:20:17.516Z,11.28
2022-11-03T13:22:45.597Z,11.26
2022-11-03T13:25:13.299Z,11.26
2022-11-03T13:27:41.126Z,11.23
2022-11-03T13:30:10.433Z,11.23
2022-11-03T13:32:38.622Z,11.25
2022-11-03T13:35:10.959Z,11.25
2022-11-03T13:37:41.906Z,11.23
2022-11-03T13:40:19.163Z,11.19
2022-11-03T13:42:57.247Z,11.12
2022-11-03T13:45:26.041Z,11.07
2022-11-03T13:50:42.652Z,11.00
2022-11-03T13:56:04.963Z,10.97
2022-11-03T14:01:25.076Z,10.81
2022-11-03T14:06:41.919Z,10.66
2022-11-03T14:09:09.607Z,10.60
2022-11-03T14:11:55.979Z,10.53
2022-11-03T14:14:24.157Z,10.46
2022-11-03T14:16:52.255Z,10.39
2022-11-03T14:19:20.276Z,10.35
2022-11-03T14:21:48.201Z,10.32
2022-11-03T14:24:16.092Z,10.30
2022-11-03T14:26:44.451Z,10.25
2022-11-03T14:29:12.135Z,10.22
2022-11-03T14:31:39.932Z,10.17
2022-11-03T14:34:07.699Z,10.14
2022-11-03T14:36:36.708Z,10.11
2022-11-03T14:39:04.679Z,10.08
2022-11-03T14:41:51.776Z,10.04
2022-11-03T14:44:19.800Z,9.99
2022-11-03T14:46:48.484Z,9.97
2022-11-03T14:49:16.459Z,9.98
2022-11-03T14:51:44.425Z,9.95
2022-11-03T14:54:12.959Z,9.93
2022-11-03T14:56:40.636Z,9.90
2022-11-03T14:59:08.317Z,9.88
2022-11-03T15:01:37.549Z,9.82
2022-11-03T15:04:05.605Z,9.81
2022-11-03T15:06:34.475Z,9.76
2022-11-03T15:09:03.739Z,9.76
2022-11-03T15:11:31.644Z,9.68
2022-11-03T15:14:02.807Z,9.63
2022-11-03T15:16:30.901Z,9.57
2022-11-03T15:18:59.557Z,9.56
2022-11-03T15:21:28.308Z,9.52
2022-11-03T15:26:45.034Z,9.42
2022-11-03T15:29:12.807Z,9.46
2022-11-03T15:31:46.197Z,9.43
2022-11-03T15:34:16.280Z,9.44
2022-11-03T15:36:44.026Z,9.30
2022-11-03T15:39:13.657Z,9.28
2022-11-03T15:41:42.667Z,9.23
2022-11-03T15:44:11.141Z,9.15
2022-11-03T15:46:38.973Z,9.15
2022-11-03T15:49:06.701Z,9.10
2022-11-03T15:51:34.468Z,9.06
2022-11-03T15:54:02.729Z,9.06
2022-11-03T15:56:30.613Z,9.06
2022-11-03T15:58:58.474Z,9.05
2022-11-03T16:01:26.604Z,8.97
2022-11-03T16:03:54.610Z,8.93
2022-11-03T16:06:40.267Z,8.87
2022-11-03T16:09:10.323Z,8.87
2022-11-03T16:11:38.017Z,8.84
2022-11-03T16:14:05.794Z,8.80
2022-11-03T16:16:33.910Z,8.77
2022-11-03T16:19:01.781Z,8.72
2022-11-03T16:21:30.136Z,8.74
2022-11-03T16:23:58.217Z,8.74
2022-11-03T16:26:25.964Z,8.77
2022-11-03T16:28:53.676Z,8.79
2022-11-03T16:31:21.479Z,8.79
2022-11-03T16:33:49.454Z,8.79
2022-11-03T16:36:18.864Z,8.80
2022-11-03T16:38:47.411Z,8.75
2022-11-03T16:41:15.268Z,8.72
2022-11-03T16:43:43.220Z,8.71
2022-11-03T16:46:10.941Z,8.70
2022-11-03T16:48:40.228Z,8.72
2022-11-03T16:51:08.398Z,8.71
2022-11-03T16:53:37.201Z,8.69
2022-11-03T16:56:05.336Z,8.66
2022-11-03T16:58:33.208Z,8.66
2022-11-03T17:01:01.871Z,8.65
2022-11-03T17:03:29.671Z,8.64
2022-11-03T17:05:58.221Z,8.63
2022-11-03T17:08:51.413Z,8.61
2022-11-03T17:11:14.563Z,8.59
2022-11-03T17:13:42.490Z,8.62
2022-11-03T17:16:11.626Z,8.59
2022-11-03T17:18:39.760Z,8.59
2022-11-03T17:21:07.652Z,8.60
2022-11-03T17:23:35.717Z,8.59
2022-11-03T19:48:41.019Z,8.29
2022-11-03T19:51:08.650Z,8.30
2022-11-03T19:53:36.210Z,8.33
2022-11-03T19:56:04.251Z,8.35
2022-11-03T19:58:31.991Z,8.33
2022-11-03T20:01:04.161Z,8.40
2022-11-03T20:03:35.122Z,8.41
2022-11-03T20:06:02.658Z,8.38
2022-11-03T20:08:32.393Z,8.38
2022-11-03T20:11:00.622Z,8.41
2022-11-03T20:13:39.580Z,8.41
2022-11-03T20:16:15.581Z,8.43
2022-11-03T20:18:43.992Z,8.43
2022-11-03T20:21:15.999Z,8.47
2022-11-03T20:23:43.778Z,8.50
2022-11-03T20:26:15.031Z,8.50
2022-11-03T20:28:45.032Z,8.49
2022-11-03T20:31:13.619Z,8.51
2022-11-03T20:33:41.355Z,8.50
2022-11-03T20:36:17.535Z,8.49
2022-11-03T20:38:59.464Z,8.51
2022-11-03T20:41:29.264Z,8.53
2022-11-03T20:43:56.949Z,8.57
2022-11-03T20:46:26.519Z,8.55
2022-11-03T20:48:55.518Z,8.53
2022-11-03T20:51:26.620Z,8.52
2022-11-03T20:53:55.862Z,8.55
2022-11-03T20:56:25.471Z,8.47
2022-11-03T20:58:53.330Z,8.49
2022-11-03T21:01:25.714Z,8.47
2022-11-03T21:04:01.571Z,8.39
2022-11-03T21:06:32.432Z,8.36
2022-11-03T21:09:00.279Z,8.41
2022-11-03T21:11:29.449Z,8.30
2022-11-03T21:14:01.395Z,8.26
2022-11-03T21:16:48.701Z,8.25
2022-11-03T21:19:36.071Z,8.17
2022-11-03T21:25:03.655Z,8.06
2022-11-03T21:27:32.192Z,8.08
2022-11-03T21:30:00.639Z,8.09
2022-11-03T21:32:28.339Z,8.08
2022-11-03T21:34:55.973Z,8.11
2022-11-03T21:37:23.829Z,8.00
2022-11-03T21:39:52.466Z,7.88
2022-11-03T21:42:38.552Z,7.93
2022-11-03T21:45:06.779Z,7.95
2022-11-03T21:47:34.459Z,7.91
2022-11-03T21:50:02.308Z,7.81
2022-11-03T21:52:33.056Z,7.87
2022-11-03T21:55:02.162Z,7.75
2022-11-03T21:57:29.836Z,7.74
2022-11-03T21:59:59.257Z,7.77
2022-11-03T22:02:27.945Z,7.77
2022-11-03T22:04:56.719Z,7.74
2022-11-03T22:07:24.409Z,7.68
2022-11-03T22:09:52.055Z,7.72
2022-11-03T22:12:19.717Z,7.69
2022-11-03T22:15:08.654Z,7.66
2022-11-03T22:17:37.777Z,7.67
2022-11-03T22:20:24.618Z,7.66
2022-11-03T22:23:10.647Z,7.62
2022-11-03T22:25:57.561Z,7.65
2022-11-03T22:28:25.161Z,7.66
2022-11-03T22:31:11.062Z,7.69
2022-11-03T22:33:58.639Z,7.73
2022-11-03T22:36:27.107Z,7.69
2022-11-03T22:39:23.750Z,7.68
2022-11-03T22:42:10.170Z,7.64
2022-11-03T22:44:56.247Z,7.69
2022-11-03T22:47:24.041Z,7.66
2022-11-03T22:49:51.606Z,7.61
2022-11-03T22:52:19.266Z,7.68
2022-11-03T22:54:47.272Z,7.68
2022-11-03T22:57:14.975Z,7.73
2022-11-03T22:59:42.771Z,7.67
2022-11-03T23:02:10.737Z,7.68
2022-11-03T23:04:38.319Z,7.70
2022-11-03T23:07:06.233Z,7.67
2022-11-03T23:09:38.195Z,7.65
2022-11-03T23:12:06.174Z,7.60
2022-11-03T23:14:53.913Z,7.56
2022-11-03T23:17:41.975Z,7.53
2022-11-03T23:20:28.101Z,7.53
2022-11-03T23:22:55.808Z,7.49
2022-11-03T23:25:23.442Z,7.51
2022-11-03T23:27:52.803Z,7.49
2022-11-03T23:30:20.709Z,7.44
2022-11-03T23:32:49.782Z,7.45
2022-11-03T23:35:17.809Z,7.41
2022-11-03T23:37:46.138Z,7.42
2022-11-03T23:40:17.184Z,7.41
2022-11-03T23:42:48.841Z,7.39
2022-11-03T23:45:35.433Z,7.38
2022-11-03T23:48:21.632Z,7.38
2022-11-03T23:50:50.991Z,7.33
2022-11-03T23:53:18.703Z,7.35
2022-11-03T23:56:04.790Z,7.32
2022-11-03T23:58:33.149Z,7.21
